sensor_id;sensor_type;location;lat;lon;timestamp;P1;durP1;ratioP1;P2;durP2;ratioP2
49147;SDS011;41980;45.550;12.070;2023-04-03T00:00:28;6.22;;;4.00;;
49147;SDS011;41980;45.550;12.070;2023-04-03T00:06:31;7.63;;;3.90;;
49147;SDS011;41980;45.550;12.070;2023-04-03T00:12:33;5.80;;;3.35;;
49147;SDS011;41980;45.550;12.070;2023-04-03T00:24:38;6.38;;;4.35;;
49147;SDS011;41980;45.550;12.070;2023-04-03T00:30:40;8.55;;;5.15;;
49147;SDS011;41980;45.550;12.070;2023-04-03T00:36:42;7.13;;;5.03;;
49147;SDS011;41980;45.550;12.070;2023-04-03T00:42:44;6.95;;;5.57;;
49147;SDS011;41980;45.550;12.070;2023-04-03T00:48:49;8.25;;;5.88;;
49147;SDS011;41980;45.550;12.070;2023-04-03T00:54:52;8.73;;;5.90;;
49147;SDS011;41980;45.550;12.070;2023-04-03T01:00:58;10.82;;;6.03;;
49147;SDS011;41980;45.550;12.070;2023-04-03T01:07:02;9.02;;;5.10;;
49147;SDS011;41980;45.550;12.070;2023-04-03T01:19:16;10.18;;;5.55;;
49147;SDS011;41980;45.550;12.070;2023-04-03T01:25:19;7.50;;;5.20;;
49147;SDS011;41980;45.550;12.070;2023-04-03T01:37:26;9.50;;;5.68;;
49147;SDS011;41980;45.550;12.070;2023-04-03T01:49:30;7.68;;;5.40;;
49147;SDS011;41980;45.550;12.070;2023-04-03T01:55:33;6.85;;;4.45;;
49147;SDS011;41980;45.550;12.070;2023-04-03T02:01:35;8.23;;;5.47;;
49147;SDS011;41980;45.550;12.070;2023-04-03T02:07:37;9.15;;;5.57;;
49147;SDS011;41980;45.550;12.070;2023-04-03T02:19:41;10.70;;;5.82;;
49147;SDS011;41980;45.550;12.070;2023-04-03T02:25:43;7.00;;;4.40;;
49147;SDS011;41980;45.550;12.070;2023-04-03T02:37:46;7.88;;;4.25;;
49147;SDS011;41980;45.550;12.070;2023-04-03T02:43:49;6.18;;;3.95;;
49147;SDS011;41980;45.550;12.070;2023-04-03T02:49:51;4.93;;;3.28;;
49147;SDS011;41980;45.550;12.070;2023-04-03T02:55:53;6.53;;;4.28;;
49147;SDS011;41980;45.550;12.070;2023-04-03T03:01:56;12.27;;;6.95;;
49147;SDS011;41980;45.550;12.070;2023-04-03T03:07:58;9.27;;;4.25;;
49147;SDS011;41980;45.550;12.070;2023-04-03T03:14:00;4.85;;;3.58;;
49147;SDS011;41980;45.550;12.070;2023-04-03T03:26:05;6.10;;;4.28;;
49147;SDS011;41980;45.550;12.070;2023-04-03T03:32:09;9.48;;;6.18;;
49147;SDS011;41980;45.550;12.070;2023-04-03T03:44:13;6.67;;;4.37;;
49147;SDS011;41980;45.550;12.070;2023-04-03T03:56:17;6.13;;;3.72;;
49147;SDS011;41980;45.550;12.070;2023-04-03T04:02:21;8.98;;;4.03;;
49147;SDS011;41980;45.550;12.070;2023-04-03T04:08:23;6.47;;;3.05;;
49147;SDS011;41980;45.550;12.070;2023-04-03T04:14:25;5.55;;;3.13;;
49147;SDS011;41980;45.550;12.070;2023-04-03T04:20:28;3.95;;;2.15;;
49147;SDS011;41980;45.550;12.070;2023-04-03T04:26:32;4.95;;;2.50;;
49147;SDS011;41980;45.550;12.070;2023-04-03T04:32:34;4.75;;;2.40;;
49147;SDS011;41980;45.550;12.070;2023-04-03T04:38:37;3.88;;;1.88;;
49147;SDS011;41980;45.550;12.070;2023-04-03T04:44:40;4.47;;;1.60;;
49147;SDS011;41980;45.550;12.070;2023-04-03T04:50:43;4.03;;;1.55;;
49147;SDS011;41980;45.550;12.070;2023-04-03T04:56:46;5.22;;;2.10;;
49147;SDS011;41980;45.550;12.070;2023-04-03T05:02:48;5.78;;;1.98;;
49147;SDS011;41980;45.550;12.070;2023-04-03T05:08:50;5.53;;;2.60;;
49147;SDS011;41980;45.550;12.070;2023-04-03T05:14:53;5.32;;;2.50;;
49147;SDS011;41980;45.550;12.070;2023-04-03T05:20:57;6.05;;;3.47;;
49147;SDS011;41980;45.550;12.070;2023-04-03T05:27:01;5.47;;;3.20;;
49147;SDS011;41980;45.550;12.070;2023-04-03T05:33:05;3.10;;;1.88;;
49147;SDS011;41980;45.550;12.070;2023-04-03T05:39:15;3.80;;;2.60;;
49147;SDS011;41980;45.550;12.070;2023-04-03T05:45:21;5.47;;;2.50;;
49147;SDS011;41980;45.550;12.070;2023-04-03T05:51:25;5.63;;;2.30;;
49147;SDS011;41980;45.550;12.070;2023-04-03T05:57:33;3.13;;;1.83;;
49147;SDS011;41980;45.550;12.070;2023-04-03T06:03:36;4.10;;;2.10;;
49147;SDS011;41980;45.550;12.070;2023-04-03T06:09:38;3.72;;;2.08;;
49147;SDS011;41980;45.550;12.070;2023-04-03T06:15:40;3.15;;;1.40;;
49147;SDS011;41980;45.550;12.070;2023-04-03T06:21:44;3.08;;;1.50;;
49147;SDS011;41980;45.550;12.070;2023-04-03T06:27:48;2.55;;;1.27;;
49147;SDS011;41980;45.550;12.070;2023-04-03T06:33:51;3.78;;;1.60;;
49147;SDS011;41980;45.550;12.070;2023-04-03T06:39:52;4.50;;;1.40;;
49147;SDS011;41980;45.550;12.070;2023-04-03T06:45:55;2.92;;;1.40;;
49147;SDS011;41980;45.550;12.070;2023-04-03T06:51:57;5.53;;;1.75;;
49147;SDS011;41980;45.550;12.070;2023-04-03T06:58:00;3.38;;;1.25;;
49147;SDS011;41980;45.550;12.070;2023-04-03T07:04:01;5.28;;;1.50;;
49147;SDS011;41980;45.550;12.070;2023-04-03T07:10:04;5.10;;;1.60;;
49147;SDS011;41980;45.550;12.070;2023-04-03T07:16:08;2.92;;;1.30;;
49147;SDS011;41980;45.550;12.070;2023-04-03T07:22:11;3.60;;;1.10;;
49147;SDS011;41980;45.550;12.070;2023-04-03T07:28:14;3.08;;;1.15;;
49147;SDS011;41980;45.550;12.070;2023-04-03T07:34:17;7.53;;;1.55;;
49147;SDS011;41980;45.550;12.070;2023-04-03T07:40:19;4.75;;;1.50;;
49147;SDS011;41980;45.550;12.070;2023-04-03T07:46:22;5.50;;;1.33;;
49147;SDS011;41980;45.550;12.070;2023-04-03T07:52:24;7.50;;;1.30;;
49147;SDS011;41980;45.550;12.070;2023-04-03T07:58:27;6.40;;;1.23;;
49147;SDS011;41980;45.550;12.070;2023-04-03T08:04:28;2.83;;;1.25;;
49147;SDS011;41980;45.550;12.070;2023-04-03T08:10:32;5.03;;;1.55;;
49147;SDS011;41980;45.550;12.070;2023-04-03T08:16:35;5.47;;;1.02;;
49147;SDS011;41980;45.550;12.070;2023-04-03T08:22:37;3.35;;;1.27;;
49147;SDS011;41980;45.550;12.070;2023-04-03T08:28:39;3.83;;;1.50;;
49147;SDS011;41980;45.550;12.070;2023-04-03T08:34:43;2.67;;;1.08;;
49147;SDS011;41980;45.550;12.070;2023-04-03T08:40:45;4.70;;;1.35;;
49147;SDS011;41980;45.550;12.070;2023-04-03T08:46:52;3.90;;;1.10;;
49147;SDS011;41980;45.550;12.070;2023-04-03T08:53:01;3.90;;;1.25;;
49147;SDS011;41980;45.550;12.070;2023-04-03T08:59:10;4.30;;;1.27;;
49147;SDS011;41980;45.550;12.070;2023-04-03T09:05:20;3.93;;;1.40;;
49147;SDS011;41980;45.550;12.070;2023-04-03T09:17:53;5.35;;;1.27;;
49147;SDS011;41980;45.550;12.070;2023-04-03T09:23:59;6.60;;;1.27;;
49147;SDS011;41980;45.550;12.070;2023-04-03T09:30:05;6.38;;;1.50;;
49147;SDS011;41980;45.550;12.070;2023-04-03T09:36:13;2.83;;;1.20;;
49147;SDS011;41980;45.550;12.070;2023-04-03T09:42:36;7.90;;;1.70;;
49147;SDS011;41980;45.550;12.070;2023-04-03T09:48:49;5.43;;;1.73;;
49147;SDS011;41980;45.550;12.070;2023-04-03T09:54:53;2.63;;;1.08;;
49147;SDS011;41980;45.550;12.070;2023-04-03T10:01:00;3.40;;;1.08;;
49147;SDS011;41980;45.550;12.070;2023-04-03T10:07:04;3.97;;;1.23;;
49147;SDS011;41980;45.550;12.070;2023-04-03T10:13:28;5.53;;;1.58;;
49147;SDS011;41980;45.550;12.070;2023-04-03T10:19:32;5.32;;;1.77;;
49147;SDS011;41980;45.550;12.070;2023-04-03T10:25:40;4.85;;;1.88;;
49147;SDS011;41980;45.550;12.070;2023-04-03T10:44:09;4.97;;;1.90;;
49147;SDS011;41980;45.550;12.070;2023-04-03T11:14:46;9.57;;;1.55;;
49147;SDS011;41980;45.550;12.070;2023-04-03T11:20:59;3.45;;;1.40;;
49147;SDS011;41980;45.550;12.070;2023-04-03T11:27:05;3.10;;;1.20;;
49147;SDS011;41980;45.550;12.070;2023-04-03T11:39:21;5.07;;;2.45;;
49147;SDS011;41980;45.550;12.070;2023-04-03T11:57:43;3.72;;;1.67;;
49147;SDS011;41980;45.550;12.070;2023-04-03T12:15:57;5.97;;;1.38;;
49147;SDS011;41980;45.550;12.070;2023-04-03T12:28:05;3.65;;;1.67;;
49147;SDS011;41980;45.550;12.070;2023-04-03T12:34:16;5.53;;;1.80;;
49147;SDS011;41980;45.550;12.070;2023-04-03T12:40:28;5.38;;;1.63;;
49147;SDS011;41980;45.550;12.070;2023-04-03T12:46:38;4.93;;;1.10;;
49147;SDS011;41980;45.550;12.070;2023-04-03T12:52:45;5.65;;;1.38;;
49147;SDS011;41980;45.550;12.070;2023-04-03T12:58:53;5.88;;;1.40;;
49147;SDS011;41980;45.550;12.070;2023-04-03T13:05:02;7.38;;;1.33;;
49147;SDS011;41980;45.550;12.070;2023-04-03T13:11:09;5.88;;;1.58;;
49147;SDS011;41980;45.550;12.070;2023-04-03T13:17:13;5.60;;;1.50;;
49147;SDS011;41980;45.550;12.070;2023-04-03T13:23:17;5.43;;;1.30;;
49147;SDS011;41980;45.550;12.070;2023-04-03T13:29:23;6.07;;;1.95;;
49147;SDS011;41980;45.550;12.070;2023-04-03T13:35:31;3.65;;;0.95;;
49147;SDS011;41980;45.550;12.070;2023-04-03T13:41:35;4.25;;;1.20;;
49147;SDS011;41980;45.550;12.070;2023-04-03T13:47:42;7.07;;;1.10;;
49147;SDS011;41980;45.550;12.070;2023-04-03T13:53:48;4.35;;;1.30;;
49147;SDS011;41980;45.550;12.070;2023-04-03T13:59:51;6.22;;;1.40;;
49147;SDS011;41980;45.550;12.070;2023-04-03T14:05:53;5.40;;;1.17;;
49147;SDS011;41980;45.550;12.070;2023-04-03T14:18:06;5.43;;;1.20;;
49147;SDS011;41980;45.550;12.070;2023-04-03T14:24:11;4.30;;;0.98;;
49147;SDS011;41980;45.550;12.070;2023-04-03T14:30:15;3.78;;;0.90;;
49147;SDS011;41980;45.550;12.070;2023-04-03T14:36:21;4.00;;;1.23;;
49147;SDS011;41980;45.550;12.070;2023-04-03T14:42:28;3.75;;;0.93;;
49147;SDS011;41980;45.550;12.070;2023-04-03T14:48:32;4.53;;;1.05;;
49147;SDS011;41980;45.550;12.070;2023-04-03T14:54:34;2.08;;;1.00;;
49147;SDS011;41980;45.550;12.070;2023-04-03T15:00:37;2.95;;;0.95;;
49147;SDS011;41980;45.550;12.070;2023-04-03T15:06:39;2.92;;;0.90;;
49147;SDS011;41980;45.550;12.070;2023-04-03T15:12:42;4.07;;;1.00;;
49147;SDS011;41980;45.550;12.070;2023-04-03T15:18:45;3.92;;;1.05;;
49147;SDS011;41980;45.550;12.070;2023-04-03T15:24:48;3.65;;;1.13;;
49147;SDS011;41980;45.550;12.070;2023-04-03T15:30:50;6.03;;;1.20;;
49147;SDS011;41980;45.550;12.070;2023-04-03T15:36:52;2.47;;;1.00;;
49147;SDS011;41980;45.550;12.070;2023-04-03T15:42:55;2.25;;;1.00;;
49147;SDS011;41980;45.550;12.070;2023-04-03T15:48:57;2.78;;;0.90;;
49147;SDS011;41980;45.550;12.070;2023-04-03T15:54:59;5.47;;;1.10;;
49147;SDS011;41980;45.550;12.070;2023-04-03T16:01:01;5.22;;;1.20;;
49147;SDS011;41980;45.550;12.070;2023-04-03T16:07:04;3.85;;;1.27;;
49147;SDS011;41980;45.550;12.070;2023-04-03T16:13:06;2.13;;;1.00;;
49147;SDS011;41980;45.550;12.070;2023-04-03T16:19:08;3.88;;;1.20;;
49147;SDS011;41980;45.550;12.070;2023-04-03T16:25:12;10.10;;;3.63;;
49147;SDS011;41980;45.550;12.070;2023-04-03T16:31:14;9.70;;;3.08;;
49147;SDS011;41980;45.550;12.070;2023-04-03T16:37:17;3.90;;;1.70;;
49147;SDS011;41980;45.550;12.070;2023-04-03T16:43:18;4.88;;;1.98;;
49147;SDS011;41980;45.550;12.070;2023-04-03T16:49:21;4.18;;;1.40;;
49147;SDS011;41980;45.550;12.070;2023-04-03T16:55:23;4.35;;;1.20;;
49147;SDS011;41980;45.550;12.070;2023-04-03T17:01:25;2.67;;;1.30;;
49147;SDS011;41980;45.550;12.070;2023-04-03T17:07:27;3.95;;;1.20;;
49147;SDS011;41980;45.550;12.070;2023-04-03T17:13:29;2.15;;;1.08;;
49147;SDS011;41980;45.550;12.070;2023-04-03T17:19:34;3.50;;;1.23;;
49147;SDS011;41980;45.550;12.070;2023-04-03T17:25:37;2.70;;;1.00;;
49147;SDS011;41980;45.550;12.070;2023-04-03T17:31:39;3.33;;;1.20;;
49147;SDS011;41980;45.550;12.070;2023-04-03T17:37:41;2.30;;;1.10;;
49147;SDS011;41980;45.550;12.070;2023-04-03T17:43:43;2.97;;;1.10;;
49147;SDS011;41980;45.550;12.070;2023-04-03T17:49:45;2.95;;;1.23;;
49147;SDS011;41980;45.550;12.070;2023-04-03T17:55:47;2.90;;;1.20;;
49147;SDS011;41980;45.550;12.070;2023-04-03T18:01:49;2.22;;;1.20;;
49147;SDS011;41980;45.550;12.070;2023-04-03T18:07:52;4.00;;;1.30;;
49147;SDS011;41980;45.550;12.070;2023-04-03T18:13:57;4.22;;;1.70;;
49147;SDS011;41980;45.550;12.070;2023-04-03T18:20:02;3.25;;;1.30;;
49147;SDS011;41980;45.550;12.070;2023-04-03T18:26:04;4.13;;;1.40;;
49147;SDS011;41980;45.550;12.070;2023-04-03T18:32:10;3.55;;;1.40;;
49147;SDS011;41980;45.550;12.070;2023-04-03T18:38:15;3.50;;;1.60;;
49147;SDS011;41980;45.550;12.070;2023-04-03T18:50:22;2.85;;;1.20;;
49147;SDS011;41980;45.550;12.070;2023-04-03T18:56:24;2.90;;;1.23;;
49147;SDS011;41980;45.550;12.070;2023-04-03T19:02:27;3.83;;;1.60;;
49147;SDS011;41980;45.550;12.070;2023-04-03T19:08:30;3.85;;;1.60;;
49147;SDS011;41980;45.550;12.070;2023-04-03T19:14:32;3.97;;;1.63;;
49147;SDS011;41980;45.550;12.070;2023-04-03T19:20:34;4.95;;;1.95;;
49147;SDS011;41980;45.550;12.070;2023-04-03T19:26:37;5.85;;;2.15;;
49147;SDS011;41980;45.550;12.070;2023-04-03T19:32:39;4.00;;;1.65;;
49147;SDS011;41980;45.550;12.070;2023-04-03T19:38:41;3.10;;;1.67;;
49147;SDS011;41980;45.550;12.070;2023-04-03T19:44:44;4.50;;;1.70;;
49147;SDS011;41980;45.550;12.070;2023-04-03T19:50:48;4.65;;;1.95;;
49147;SDS011;41980;45.550;12.070;2023-04-03T19:56:50;5.85;;;1.85;;
49147;SDS011;41980;45.550;12.070;2023-04-03T20:02:52;4.53;;;1.70;;
49147;SDS011;41980;45.550;12.070;2023-04-03T20:08:55;6.05;;;2.38;;
49147;SDS011;41980;45.550;12.070;2023-04-03T20:14:57;2.88;;;1.60;;
49147;SDS011;41980;45.550;12.070;2023-04-03T20:21:02;6.63;;;1.83;;
49147;SDS011;41980;45.550;12.070;2023-04-03T20:27:06;7.45;;;2.25;;
49147;SDS011;41980;45.550;12.070;2023-04-03T20:39:09;8.32;;;2.47;;
49147;SDS011;41980;45.550;12.070;2023-04-03T20:51:17;7.75;;;2.50;;
49147;SDS011;41980;45.550;12.070;2023-04-03T20:57:20;9.45;;;2.17;;
49147;SDS011;41980;45.550;12.070;2023-04-03T21:03:22;6.10;;;1.90;;
49147;SDS011;41980;45.550;12.070;2023-04-03T21:21:45;9.87;;;1.70;;
49147;SDS011;41980;45.550;12.070;2023-04-03T21:27:47;14.40;;;2.35;;
49147;SDS011;41980;45.550;12.070;2023-04-03T21:33:49;9.60;;;1.70;;
49147;SDS011;41980;45.550;12.070;2023-04-03T21:39:51;5.13;;;1.58;;
49147;SDS011;41980;45.550;12.070;2023-04-03T21:45:54;8.60;;;2.08;;
49147;SDS011;41980;45.550;12.070;2023-04-03T21:51:57;6.22;;;1.88;;
49147;SDS011;41980;45.550;12.070;2023-04-03T22:04:01;5.18;;;1.50;;
49147;SDS011;41980;45.550;12.070;2023-04-03T22:10:03;4.63;;;1.80;;
49147;SDS011;41980;45.550;12.070;2023-04-03T22:16:06;9.68;;;2.13;;
49147;SDS011;41980;45.550;12.070;2023-04-03T22:22:09;6.43;;;1.88;;
49147;SDS011;41980;45.550;12.070;2023-04-03T22:34:12;6.82;;;1.80;;
49147;SDS011;41980;45.550;12.070;2023-04-03T22:40:16;3.50;;;1.70;;
49147;SDS011;41980;45.550;12.070;2023-04-03T22:46:18;7.20;;;2.00;;
49147;SDS011;41980;45.550;12.070;2023-04-03T22:52:20;7.05;;;1.60;;
49147;SDS011;41980;45.550;12.070;2023-04-03T22:58:22;5.47;;;1.90;;
49147;SDS011;41980;45.550;12.070;2023-04-03T23:04:26;5.93;;;1.73;;
49147;SDS011;41980;45.550;12.070;2023-04-03T23:16:30;5.85;;;1.80;;
49147;SDS011;41980;45.550;12.070;2023-04-03T23:22:32;6.55;;;1.80;;
49147;SDS011;41980;45.550;12.070;2023-04-03T23:34:36;2.78;;;1.25;;
49147;SDS011;41980;45.550;12.070;2023-04-03T23:52:43;4.30;;;1.90;;
49147;SDS011;41980;45.550;12.070;2023-04-03T23:58:45;5.13;;;1.52;;
